sensor_id;sensor_type;location;lat;lon;timestamp;pressure;altitude;pressure_sealevel;temperature;humidity
10071;BME280;5074;53.720;10.014;2022-09-30T00:01:31;100263.47;;;6.98;100.00
10071;BME280;5074;53.720;10.014;2022-09-30T00:04:00;100261.63;;;7.01;100.00
10071;BME280;5074;53.720;10.014;2022-09-30T00:06:29;100257.34;;;6.95;100.00
10071;BME280;5074;53.720;10.014;2022-09-30T00:08:58;100264.06;;;7.09;100.00
10071;BME280;5074;53.720;10.014;2022-09-30T00:11:27;100262.25;;;7.11;100.00
10071;BME280;5074;53.720;10.014;2022-09-30T00:13:57;100266.22;;;7.26;100.00
10071;BME280;5074;53.720;10.014;2022-09-30T00:16:27;100267.03;;;7.29;100.00
10071;BME280;5074;53.720;10.014;2022-09-30T00:18:56;100256.28;;;7.33;100.00
10071;BME280;5074;53.720;10.014;2022-09-30T00:21:26;100264.06;;;7.39;100.00
10071;BME280;5074;53.720;10.014;2022-09-30T00:23:56;100269.28;;;7.42;100.00
10071;BME280;5074;53.720;10.014;2022-09-30T00:26:24;100270.09;;;7.45;100.00
10071;BME280;5074;53.720;10.014;2022-09-30T00:28:54;100258.81;;;7.37;100.00
10071;BME280;5074;53.720;10.014;2022-09-30T00:31:25;100278.72;;;7.52;100.00
10071;BME280;5074;53.720;10.014;2022-09-30T00:33:53;100281.28;;;7.55;100.00
10071;BME280;5074;53.720;10.014;2022-09-30T00:36:35;100284.75;;;7.59;100.00
10071;BME280;5074;53.720;10.014;2022-09-30T00:39:06;100278.41;;;7.63;100.00
10071;BME280;5074;53.720;10.014;2022-09-30T00:41:35;100283.69;;;7.64;100.00
10071;BME280;5074;53.720;10.014;2022-09-30T00:47:10;100279.19;;;7.67;100.00
10071;BME280;5074;53.720;10.014;2022-09-30T00:49:44;100275.56;;;7.69;100.00
10071;BME280;5074;53.720;10.014;2022-09-30T00:52:12;100274.66;;;7.70;100.00
10071;BME280;5074;53.720;10.014;2022-09-30T00:54:42;100275.63;;;7.68;100.00
10071;BME280;5074;53.720;10.014;2022-09-30T00:57:10;100284.44;;;7.68;100.00
10071;BME280;5074;53.720;10.014;2022-09-30T00:59:42;100287.25;;;7.63;100.00
10071;BME280;5074;53.720;10.014;2022-09-30T01:02:13;100263.03;;;7.44;100.00
10071;BME280;5074;53.720;10.014;2022-09-30T01:04:42;100268.25;;;7.47;100.00
10071;BME280;5074;53.720;10.014;2022-09-30T01:07:11;100278.63;;;7.55;100.00
10071;BME280;5074;53.720;10.014;2022-09-30T01:09:42;100278.81;;;7.49;100.00
10071;BME280;5074;53.720;10.014;2022-09-30T01:12:14;100282.44;;;7.46;100.00
10071;BME280;5074;53.720;10.014;2022-09-30T01:14:45;100286.84;;;7.47;100.00
10071;BME280;5074;53.720;10.014;2022-09-30T01:17:21;100293.19;;;7.43;100.00
10071;BME280;5074;53.720;10.014;2022-09-30T01:20:19;100292.38;;;7.41;100.00
10071;BME280;5074;53.720;10.014;2022-09-30T01:23:02;100292.47;;;7.38;100.00
10071;BME280;5074;53.720;10.014;2022-09-30T01:25:50;100289.09;;;7.32;100.00
10071;BME280;5074;53.720;10.014;2022-09-30T01:28:45;100298.91;;;7.29;100.00
10071;BME280;5074;53.720;10.014;2022-09-30T01:31:30;100293.72;;;7.25;100.00
10071;BME280;5074;53.720;10.014;2022-09-30T01:34:07;100293.00;;;7.20;100.00
10071;BME280;5074;53.720;10.014;2022-09-30T01:36:48;100294.13;;;7.11;100.00
10071;BME280;5074;53.720;10.014;2022-09-30T01:39:28;100299.34;;;7.14;100.00
10071;BME280;5074;53.720;10.014;2022-09-30T01:42:06;100299.44;;;7.11;100.00
10071;BME280;5074;53.720;10.014;2022-09-30T01:44:41;100299.59;;;7.06;100.00
10071;BME280;5074;53.720;10.014;2022-09-30T01:47:19;100296.88;;;7.08;100.00
10071;BME280;5074;53.720;10.014;2022-09-30T01:49:55;100302.38;;;7.00;100.00
10071;BME280;5074;53.720;10.014;2022-09-30T01:52:31;100304.31;;;6.95;100.00
10071;BME280;5074;53.720;10.014;2022-09-30T01:55:06;100300.63;;;7.01;100.00
10071;BME280;5074;53.720;10.014;2022-09-30T01:57:42;100297.16;;;6.97;100.00
10071;BME280;5074;53.720;10.014;2022-09-30T02:00:13;100299.88;;;6.95;100.00
10071;BME280;5074;53.720;10.014;2022-09-30T02:02:46;100298.22;;;6.91;100.00
10071;BME280;5074;53.720;10.014;2022-09-30T02:05:18;100299.41;;;6.80;100.00
10071;BME280;5074;53.720;10.014;2022-09-30T02:07:50;100311.47;;;6.58;100.00
10071;BME280;5074;53.720;10.014;2022-09-30T02:10:23;100305.44;;;6.53;100.00
10071;BME280;5074;53.720;10.014;2022-09-30T02:12:55;100314.06;;;6.62;100.00
10071;BME280;5074;53.720;10.014;2022-09-30T02:15:28;100312.16;;;6.67;100.00
10071;BME280;5074;53.720;10.014;2022-09-30T02:18:08;100323.84;;;6.59;100.00
10071;BME280;5074;53.720;10.014;2022-09-30T02:20:41;100321.41;;;6.52;100.00
10071;BME280;5074;53.720;10.014;2022-09-30T02:23:13;100326.75;;;6.50;100.00
10071;BME280;5074;53.720;10.014;2022-09-30T02:25:45;100326.63;;;6.55;100.00
10071;BME280;5074;53.720;10.014;2022-09-30T02:28:18;100334.00;;;6.43;100.00
10071;BME280;5074;53.720;10.014;2022-09-30T02:30:49;100330.47;;;6.43;100.00
10071;BME280;5074;53.720;10.014;2022-09-30T02:33:23;100334.31;;;6.31;100.00
10071;BME280;5074;53.720;10.014;2022-09-30T02:35:57;100332.72;;;6.24;100.00
10071;BME280;5074;53.720;10.014;2022-09-30T02:38:30;100331.81;;;6.23;100.00
10071;BME280;5074;53.720;10.014;2022-09-30T02:41:05;100331.97;;;6.17;100.00
10071;BME280;5074;53.720;10.014;2022-09-30T02:43:36;100343.88;;;5.99;100.00
10071;BME280;5074;53.720;10.014;2022-09-30T02:46:10;100344.06;;;5.90;100.00
10071;BME280;5074;53.720;10.014;2022-09-30T02:48:45;100350.25;;;5.90;100.00
10071;BME280;5074;53.720;10.014;2022-09-30T02:51:18;100348.31;;;5.99;100.00
10071;BME280;5074;53.720;10.014;2022-09-30T02:53:53;100352.78;;;5.98;100.00
10071;BME280;5074;53.720;10.014;2022-09-30T02:56:25;100354.22;;;6.12;100.00
10071;BME280;5074;53.720;10.014;2022-09-30T02:58:56;100343.72;;;6.07;100.00
10071;BME280;5074;53.720;10.014;2022-09-30T03:01:24;100348.88;;;6.13;100.00
10071;BME280;5074;53.720;10.014;2022-09-30T03:03:56;100342.53;;;6.20;100.00
10071;BME280;5074;53.720;10.014;2022-09-30T03:06:25;100343.19;;;6.30;100.00
10071;BME280;5074;53.720;10.014;2022-09-30T03:08:54;100352.81;;;6.34;100.00
10071;BME280;5074;53.720;10.014;2022-09-30T03:11:24;100350.84;;;6.41;100.00
10071;BME280;5074;53.720;10.014;2022-09-30T03:14:16;100348.09;;;6.46;100.00
10071;BME280;5074;53.720;10.014;2022-09-30T03:20:21;100363.56;;;6.64;100.00
10071;BME280;5074;53.720;10.014;2022-09-30T03:23:08;100359.97;;;6.67;100.00
10071;BME280;5074;53.720;10.014;2022-09-30T03:25:45;100367.75;;;6.73;100.00
10071;BME280;5074;53.720;10.014;2022-09-30T03:28:22;100367.66;;;6.77;100.00
10071;BME280;5074;53.720;10.014;2022-09-30T03:31:00;100362.31;;;6.79;100.00
10071;BME280;5074;53.720;10.014;2022-09-30T03:33:38;100364.94;;;6.81;100.00
10071;BME280;5074;53.720;10.014;2022-09-30T03:36:14;100360.44;;;6.83;100.00
10071;BME280;5074;53.720;10.014;2022-09-30T03:38:49;100363.84;;;6.88;100.00
10071;BME280;5074;53.720;10.014;2022-09-30T03:41:24;100369.06;;;6.91;100.00
10071;BME280;5074;53.720;10.014;2022-09-30T03:43:57;100367.09;;;6.99;100.00
10071;BME280;5074;53.720;10.014;2022-09-30T03:46:32;100367.00;;;7.02;100.00
10071;BME280;5074;53.720;10.014;2022-09-30T03:49:03;100363.38;;;7.05;100.00
10071;BME280;5074;53.720;10.014;2022-09-30T03:51:36;100365.16;;;7.04;100.00
10071;BME280;5074;53.720;10.014;2022-09-30T03:54:06;100372.16;;;7.08;100.00
10071;BME280;5074;53.720;10.014;2022-09-30T03:56:36;100372.09;;;7.10;100.00
10071;BME280;5074;53.720;10.014;2022-09-30T03:59:10;100372.06;;;7.11;100.00
10071;BME280;5074;53.720;10.014;2022-09-30T04:01:39;100373.69;;;7.17;100.00
10071;BME280;5074;53.720;10.014;2022-09-30T04:04:07;100370.97;;;7.19;100.00
10071;BME280;5074;53.720;10.014;2022-09-30T04:06:37;100373.59;;;7.20;100.00
10071;BME280;5074;53.720;10.014;2022-09-30T04:09:05;100365.63;;;7.20;100.00
10071;BME280;5074;53.720;10.014;2022-09-30T04:11:33;100374.41;;;7.24;100.00
10071;BME280;5074;53.720;10.014;2022-09-30T04:14:01;100380.53;;;7.26;100.00
10071;BME280;5074;53.720;10.014;2022-09-30T04:16:29;100378.72;;;7.28;100.00
10071;BME280;5074;53.720;10.014;2022-09-30T04:18:58;100380.56;;;7.24;100.00
10071;BME280;5074;53.720;10.014;2022-09-30T04:21:26;100385.84;;;7.26;100.00
10071;BME280;5074;53.720;10.014;2022-09-30T04:23:56;100387.50;;;7.30;100.00
10071;BME280;5074;53.720;10.014;2022-09-30T04:26:24;100398.06;;;7.33;100.00
10071;BME280;5074;53.720;10.014;2022-09-30T04:28:52;100398.00;;;7.35;100.00
10071;BME280;5074;53.720;10.014;2022-09-30T04:31:20;100396.97;;;7.40;100.00
10071;BME280;5074;53.720;10.014;2022-09-30T04:33:48;100403.16;;;7.41;100.00
10071;BME280;5074;53.720;10.014;2022-09-30T04:36:17;100403.09;;;7.44;100.00
10071;BME280;5074;53.720;10.014;2022-09-30T04:38:45;100408.38;;;7.45;100.00
10071;BME280;5074;53.720;10.014;2022-09-30T04:41:15;100398.53;;;7.47;100.00
10071;BME280;5074;53.720;10.014;2022-09-30T04:43:45;100408.28;;;7.48;100.00
10071;BME280;5074;53.720;10.014;2022-09-30T04:46:13;100408.19;;;7.52;100.00
10071;BME280;5074;53.720;10.014;2022-09-30T04:48:42;100414.31;;;7.54;100.00
10071;BME280;5074;53.720;10.014;2022-09-30T04:51:11;100424.06;;;7.55;100.00
10071;BME280;5074;53.720;10.014;2022-09-30T04:53:40;100427.66;;;7.52;100.00
10071;BME280;5074;53.720;10.014;2022-09-30T04:56:08;100427.63;;;7.54;100.00
10071;BME280;5074;53.720;10.014;2022-09-30T04:58:39;100429.41;;;7.53;100.00
10071;BME280;5074;53.720;10.014;2022-09-30T05:01:08;100432.13;;;7.52;100.00
10071;BME280;5074;53.720;10.014;2022-09-30T05:03:37;100426.00;;;7.48;100.00
10071;BME280;5074;53.720;10.014;2022-09-30T05:06:06;100428.59;;;7.50;100.00
10071;BME280;5074;53.720;10.014;2022-09-30T05:08:34;100432.97;;;7.52;100.00
10071;BME280;5074;53.720;10.014;2022-09-30T05:11:09;100445.31;;;7.55;100.00
10071;BME280;5074;53.720;10.014;2022-09-30T05:13:41;100452.41;;;7.56;100.00
10071;BME280;5074;53.720;10.014;2022-09-30T05:16:09;100452.44;;;7.54;100.00
10071;BME280;5074;53.720;10.014;2022-09-30T05:18:37;100451.53;;;7.54;100.00
10071;BME280;5074;53.720;10.014;2022-09-30T05:21:08;100458.63;;;7.55;100.00
10071;BME280;5074;53.720;10.014;2022-09-30T05:23:37;100447.03;;;7.57;100.00
10071;BME280;5074;53.720;10.014;2022-09-30T05:26:05;100456.81;;;7.55;100.00
10071;BME280;5074;53.720;10.014;2022-09-30T05:28:38;100463.00;;;7.57;100.00
10071;BME280;5074;53.720;10.014;2022-09-30T05:31:07;100461.25;;;7.56;100.00
10071;BME280;5074;53.720;10.014;2022-09-30T05:33:38;100462.91;;;7.60;100.00
10071;BME280;5074;53.720;10.014;2022-09-30T05:36:08;100459.34;;;7.61;100.00
10071;BME280;5074;53.720;10.014;2022-09-30T05:38:38;100470.03;;;7.60;100.00
10071;BME280;5074;53.720;10.014;2022-09-30T05:41:07;100467.31;;;7.61;100.00
10071;BME280;5074;53.720;10.014;2022-09-30T05:43:37;100469.97;;;7.61;100.00
10071;BME280;5074;53.720;10.014;2022-09-30T05:46:07;100472.59;;;7.63;100.00
10071;BME280;5074;53.720;10.014;2022-09-30T05:48:35;100467.31;;;7.61;100.00
10071;BME280;5074;53.720;10.014;2022-09-30T05:51:03;100459.28;;;7.63;100.00
10071;BME280;5074;53.720;10.014;2022-09-30T05:53:33;100470.75;;;7.65;100.00
10071;BME280;5074;53.720;10.014;2022-09-30T05:56:03;100467.28;;;7.63;100.00
10071;BME280;5074;53.720;10.014;2022-09-30T05:58:31;100462.81;;;7.63;100.00
10071;BME280;5074;53.720;10.014;2022-09-30T06:01:03;100464.56;;;7.64;100.00
10071;BME280;5074;53.720;10.014;2022-09-30T06:03:40;100461.06;;;7.62;100.00
10071;BME280;5074;53.720;10.014;2022-09-30T06:06:09;100461.06;;;7.62;100.00
10071;BME280;5074;53.720;10.014;2022-09-30T06:08:37;100472.59;;;7.63;100.00
10071;BME280;5074;53.720;10.014;2022-09-30T06:11:10;100472.63;;;7.61;100.00
10071;BME280;5074;53.720;10.014;2022-09-30T06:13:38;100473.53;;;7.60;100.00
10071;BME280;5074;53.720;10.014;2022-09-30T06:16:08;100469.97;;;7.61;100.00
10071;BME280;5074;53.720;10.014;2022-09-30T06:18:37;100477.97;;;7.61;100.00
10071;BME280;5074;53.720;10.014;2022-09-30T06:21:10;100481.44;;;7.63;100.00
10071;BME280;5074;53.720;10.014;2022-09-30T06:23:40;100482.09;;;7.72;100.00
10071;BME280;5074;53.720;10.014;2022-09-30T06:26:10;100491.66;;;7.79;100.00
10071;BME280;5074;53.720;10.014;2022-09-30T06:28:39;100498.69;;;7.81;100.00
10071;BME280;5074;53.720;10.014;2022-09-30T06:31:08;100503.03;;;7.84;100.00
10071;BME280;5074;53.720;10.014;2022-09-30T06:33:37;100488.81;;;7.85;100.00
10071;BME280;5074;53.720;10.014;2022-09-30T06:36:05;100490.75;;;7.78;100.00
10071;BME280;5074;53.720;10.014;2022-09-30T06:38:34;100495.22;;;7.78;100.00
10071;BME280;5074;53.720;10.014;2022-09-30T06:41:05;100503.25;;;7.76;100.00
10071;BME280;5074;53.720;10.014;2022-09-30T06:43:33;100506.84;;;7.74;100.00
10071;BME280;5074;53.720;10.014;2022-09-30T06:46:12;100507.75;;;7.74;100.00
10071;BME280;5074;53.720;10.014;2022-09-30T06:48:52;100507.81;;;7.71;100.00
10071;BME280;5074;53.720;10.014;2022-09-30T06:51:36;100501.59;;;7.72;100.00
10071;BME280;5074;53.720;10.014;2022-09-30T06:54:06;100508.69;;;7.72;100.00
10071;BME280;5074;53.720;10.014;2022-09-30T06:56:34;100505.09;;;7.74;100.00
10071;BME280;5074;53.720;10.014;2022-09-30T06:59:02;100505.91;;;7.76;100.00
10071;BME280;5074;53.720;10.014;2022-09-30T07:01:30;100512.97;;;7.77;100.00
10071;BME280;5074;53.720;10.014;2022-09-30T07:03:58;100502.25;;;7.80;100.00
10071;BME280;5074;53.720;10.014;2022-09-30T07:06:29;100510.16;;;7.83;100.00
10071;BME280;5074;53.720;10.014;2022-09-30T07:08:56;100505.63;;;7.87;100.00
10071;BME280;5074;53.720;10.014;2022-09-30T07:11:26;100508.16;;;7.92;100.00
10071;BME280;5074;53.720;10.014;2022-09-30T07:13:54;100508.91;;;7.95;100.00
10071;BME280;5074;53.720;10.014;2022-09-30T07:16:23;100508.78;;;8.00;100.00
10071;BME280;5074;53.720;10.014;2022-09-30T07:18:51;100502.41;;;8.06;100.00
10071;BME280;5074;53.720;10.014;2022-09-30T07:21:19;100499.63;;;8.10;100.00
10071;BME280;5074;53.720;10.014;2022-09-30T07:23:47;100503.94;;;8.14;100.00
10071;BME280;5074;53.720;10.014;2022-09-30T07:26:19;100504.59;;;8.23;100.00
10071;BME280;5074;53.720;10.014;2022-09-30T07:28:49;100507.94;;;8.29;100.00
10071;BME280;5074;53.720;10.014;2022-09-30T07:31:21;100500.56;;;8.38;100.00
10071;BME280;5074;53.720;10.014;2022-09-30T07:34:06;100513.72;;;8.44;100.00
10071;BME280;5074;53.720;10.014;2022-09-30T07:36:36;100508.41;;;8.44;100.00
10071;BME280;5074;53.720;10.014;2022-09-30T07:39:07;100509.06;;;8.52;100.00
10071;BME280;5074;53.720;10.014;2022-09-30T07:41:37;100514.31;;;8.55;100.00
10071;BME280;5074;53.720;10.014;2022-09-30T07:44:09;100522.97;;;8.62;100.00
10071;BME280;5074;53.720;10.014;2022-09-30T07:46:42;100524.50;;;8.69;100.00
10071;BME280;5074;53.720;10.014;2022-09-30T07:49:13;100511.88;;;8.76;100.00
10071;BME280;5074;53.720;10.014;2022-09-30T07:51:45;100518.88;;;8.80;100.00
10071;BME280;5074;53.720;10.014;2022-09-30T07:54:14;100521.44;;;8.83;100.00
10071;BME280;5074;53.720;10.014;2022-09-30T07:56:43;100524.00;;;8.86;100.00
10071;BME280;5074;53.720;10.014;2022-09-30T07:59:34;100523.72;;;8.94;100.00
10071;BME280;5074;53.720;10.014;2022-09-30T08:02:04;100526.25;;;8.98;100.00
10071;BME280;5074;53.720;10.014;2022-09-30T08:04:32;100523.28;;;9.08;100.00
10071;BME280;5074;53.720;10.014;2022-09-30T08:07:03;100532.03;;;9.11;100.00
10071;BME280;5074;53.720;10.014;2022-09-30T08:09:31;100530.13;;;9.16;100.00
10071;BME280;5074;53.720;10.014;2022-09-30T08:12:01;100538.84;;;9.21;100.00
10071;BME280;5074;53.720;10.014;2022-09-30T08:14:30;100535.84;;;9.31;100.00
10071;BME280;5074;53.720;10.014;2022-09-30T08:16:59;100526.78;;;9.36;100.00
10071;BME280;5074;53.720;10.014;2022-09-30T08:19:29;100530.94;;;9.45;100.00
10071;BME280;5074;53.720;10.014;2022-09-30T08:21:59;100519.97;;;9.53;100.00
10071;BME280;5074;53.720;10.014;2022-09-30T08:24:32;100522.47;;;9.59;100.00
10071;BME280;5074;53.720;10.014;2022-09-30T08:27:00;100524.91;;;9.65;100.00
10071;BME280;5074;53.720;10.014;2022-09-30T08:29:28;100529.22;;;9.69;100.00
10071;BME280;5074;53.720;10.014;2022-09-30T08:32:18;100532.56;;;9.74;100.00
10071;BME280;5074;53.720;10.014;2022-09-30T08:34:46;100534.22;;;9.79;100.00
10071;BME280;5074;53.720;10.014;2022-09-30T08:37:14;100537.53;;;9.85;100.00
10071;BME280;5074;53.720;10.014;2022-09-30T08:39:42;100538.09;;;9.95;100.00
10071;BME280;5074;53.720;10.014;2022-09-30T08:42:20;100539.69;;;9.99;100.00
10071;BME280;5074;53.720;10.014;2022-09-30T08:45:11;100539.53;;;10.04;100.00
10071;BME280;5074;53.720;10.014;2022-09-30T08:47:47;100538.47;;;10.08;100.00
10071;BME280;5074;53.720;10.014;2022-09-30T08:50:22;100542.03;;;10.08;100.00
10071;BME280;5074;53.720;10.014;2022-09-30T08:52:58;100537.38;;;10.14;100.00
10071;BME280;5074;53.720;10.014;2022-09-30T08:55:31;100538.97;;;10.19;100.00
10071;BME280;5074;53.720;10.014;2022-09-30T08:58:01;100542.97;;;10.31;100.00
10071;BME280;5074;53.720;10.014;2022-09-30T09:00:30;100542.03;;;10.32;100.00
10071;BME280;5074;53.720;10.014;2022-09-30T09:03:00;100548.81;;;10.42;100.00
10071;BME280;5074;53.720;10.014;2022-09-30T09:05:40;100552.19;;;10.48;100.00
10071;BME280;5074;53.720;10.014;2022-09-30T09:08:26;100554.69;;;10.52;100.00
10071;BME280;5074;53.720;10.014;2022-09-30T09:11:01;100553.50;;;10.59;100.00
10071;BME280;5074;53.720;10.014;2022-09-30T09:13:43;100547.84;;;10.67;100.00
10071;BME280;5074;53.720;10.014;2022-09-30T09:16:21;100550.91;;;10.80;100.00
10071;BME280;5074;53.720;10.014;2022-09-30T09:19:00;100552.47;;;10.86;100.00
10071;BME280;5074;53.720;10.014;2022-09-30T09:21:38;100548.69;;;10.91;100.00
10071;BME280;5074;53.720;10.014;2022-09-30T09:24:13;100550.94;;;11.02;100.00
10071;BME280;5074;53.720;10.014;2022-09-30T09:26:42;100548.34;;;11.01;100.00
10071;BME280;5074;53.720;10.014;2022-09-30T09:29:26;100547.09;;;11.09;100.00
10071;BME280;5074;53.720;10.014;2022-09-30T09:32:00;100546.00;;;11.13;100.00
10071;BME280;5074;53.720;10.014;2022-09-30T09:34:30;100551.97;;;11.20;100.00
10071;BME280;5074;53.720;10.014;2022-09-30T09:37:12;100554.22;;;11.31;100.00
10071;BME280;5074;53.720;10.014;2022-09-30T09:39:54;100553.09;;;11.37;100.00
10071;BME280;5074;53.720;10.014;2022-09-30T09:42:44;100549.28;;;11.42;100.00
10071;BME280;5074;53.720;10.014;2022-09-30T09:45:22;100556.84;;;11.53;100.00
10071;BME280;5074;53.720;10.014;2022-09-30T09:47:53;100546.56;;;11.64;100.00
10071;BME280;5074;53.720;10.014;2022-09-30T09:50:31;100554.41;;;11.69;100.00
10071;BME280;5074;53.720;10.014;2022-09-30T09:53:16;100548.84;;;11.74;100.00
10071;BME280;5074;53.720;10.014;2022-09-30T09:55:48;100548.53;;;11.81;100.00
10071;BME280;5074;53.720;10.014;2022-09-30T09:58:17;100556.41;;;11.85;100.00
10071;BME280;5074;53.720;10.014;2022-09-30T10:00:45;100553.59;;;11.88;100.00
10071;BME280;5074;53.720;10.014;2022-09-30T10:03:37;100555.81;;;11.98;100.00
10071;BME280;5074;53.720;10.014;2022-09-30T10:06:09;100561.28;;;12.16;100.00
10071;BME280;5074;53.720;10.014;2022-09-30T10:08:51;100561.22;;;12.18;100.00
10071;BME280;5074;53.720;10.014;2022-09-30T10:11:21;100562.97;;;12.38;100.00
10071;BME280;5074;53.720;10.014;2022-09-30T10:13:49;100555.41;;;12.47;100.00
10071;BME280;5074;53.720;10.014;2022-09-30T10:16:26;100564.03;;;12.54;100.00
10071;BME280;5074;53.720;10.014;2022-09-30T10:18:56;100560.91;;;12.63;100.00
10071;BME280;5074;53.720;10.014;2022-09-30T10:21:27;100570.19;;;12.56;100.00
10071;BME280;5074;53.720;10.014;2022-09-30T10:23:56;100567.41;;;12.77;100.00
10071;BME280;5074;53.720;10.014;2022-09-30T10:26:26;100554.47;;;12.67;100.00
10071;BME280;5074;53.720;10.014;2022-09-30T10:28:56;100569.59;;;12.88;100.00
10071;BME280;5074;53.720;10.014;2022-09-30T10:31:27;100564.28;;;13.05;100.00
10071;BME280;5074;53.720;10.014;2022-09-30T10:33:59;100571.75;;;13.17;100.00
10071;BME280;5074;53.720;10.014;2022-09-30T10:36:33;100559.84;;;13.23;100.00
10071;BME280;5074;53.720;10.014;2022-09-30T10:39:05;100564.00;;;13.29;100.00
10071;BME280;5074;53.720;10.014;2022-09-30T10:41:36;100561.88;;;13.18;100.00
10071;BME280;5074;53.720;10.014;2022-09-30T10:44:11;100567.16;;;13.19;100.00
10071;BME280;5074;53.720;10.014;2022-09-30T10:46:43;100558.97;;;13.23;100.00
10071;BME280;5074;53.720;10.014;2022-09-30T10:49:23;100563.69;;;13.17;100.00
10071;BME280;5074;53.720;10.014;2022-09-30T10:51:55;100560.69;;;13.24;100.00
10071;BME280;5074;53.720;10.014;2022-09-30T10:54:45;100560.63;;;13.25;100.00
10071;BME280;5074;53.720;10.014;2022-09-30T10:57:17;100573.81;;;13.30;100.00
10071;BME280;5074;53.720;10.014;2022-09-30T10:59:47;100566.22;;;13.40;100.00
10071;BME280;5074;53.720;10.014;2022-09-30T11:02:26;100570.41;;;13.45;100.00
10071;BME280;5074;53.720;10.014;2022-09-30T11:05:04;100569.22;;;13.51;100.00
10071;BME280;5074;53.720;10.014;2022-09-30T11:07:38;100570.66;;;13.76;100.00
10071;BME280;5074;53.720;10.014;2022-09-30T11:10:24;100563.28;;;13.79;100.00
10071;BME280;5074;53.720;10.014;2022-09-30T11:13:01;100567.16;;;13.91;100.00
10071;BME280;5074;53.720;10.014;2022-09-30T11:15:39;100572.31;;;13.78;100.00
10071;BME280;5074;53.720;10.014;2022-09-30T11:18:14;100563.59;;;13.90;100.00
10071;BME280;5074;53.720;10.014;2022-09-30T11:20:47;100566.34;;;14.06;100.00
10071;BME280;5074;53.720;10.014;2022-09-30T11:23:21;100570.09;;;14.04;100.00
10071;BME280;5074;53.720;10.014;2022-09-30T11:25:57;100568.72;;;13.95;100.00
10071;BME280;5074;53.720;10.014;2022-09-30T11:28:53;100559.09;;;14.09;100.00
10071;BME280;5074;53.720;10.014;2022-09-30T11:31:31;100559.16;;;14.07;100.00
10071;BME280;5074;53.720;10.014;2022-09-30T11:34:14;100550.06;;;14.10;100.00
10071;BME280;5074;53.720;10.014;2022-09-30T11:36:53;100553.16;;;14.02;100.00
10071;BME280;5074;53.720;10.014;2022-09-30T11:42:18;100548.44;;;13.72;100.00
10071;BME280;5074;53.720;10.014;2022-09-30T11:44:55;100542.78;;;13.61;100.00
10071;BME280;5074;53.720;10.014;2022-09-30T11:47:36;100546.72;;;13.53;100.00
10071;BME280;5074;53.720;10.014;2022-09-30T11:50:30;100534.81;;;13.59;100.00
10071;BME280;5074;53.720;10.014;2022-09-30T11:53:10;100541.78;;;13.79;100.00
10071;BME280;5074;53.720;10.014;2022-09-30T11:55:57;100546.72;;;13.88;100.00
10071;BME280;5074;53.720;10.014;2022-09-30T11:58:33;100544.88;;;13.89;100.00
10071;BME280;5074;53.720;10.014;2022-09-30T12:01:16;100543.06;;;13.89;100.00
10071;BME280;5074;53.720;10.014;2022-09-30T12:03:54;100537.97;;;14.01;100.00
10071;BME280;5074;53.720;10.014;2022-09-30T12:06:28;100535.53;;;13.96;100.00
10071;BME280;5074;53.720;10.014;2022-09-30T12:09:03;100540.09;;;14.12;100.00
10071;BME280;5074;53.720;10.014;2022-09-30T12:11:40;100537.00;;;14.19;100.00
10071;BME280;5074;53.720;10.014;2022-09-30T12:14:15;100536.06;;;14.20;100.00
10071;BME280;5074;53.720;10.014;2022-09-30T12:16:47;100548.63;;;14.20;100.00
10071;BME280;5074;53.720;10.014;2022-09-30T12:19:20;100546.09;;;14.17;100.00
10071;BME280;5074;53.720;10.014;2022-09-30T12:21:54;100534.69;;;14.29;100.00
10071;BME280;5074;53.720;10.014;2022-09-30T12:24:30;100535.44;;;14.49;100.00
10071;BME280;5074;53.720;10.014;2022-09-30T12:27:01;100546.69;;;14.55;100.00
10071;BME280;5074;53.720;10.014;2022-09-30T12:29:33;100544.31;;;14.99;100.00
10071;BME280;5074;53.720;10.014;2022-09-30T12:32:47;100543.63;;;15.72;100.00
10071;BME280;5074;53.720;10.014;2022-09-30T12:35:40;100545.81;;;17.64;89.83
10071;BME280;5074;53.720;10.014;2022-09-30T12:38:23;100540.78;;;19.23;71.76
10071;BME280;5074;53.720;10.014;2022-09-30T12:41:02;100541.88;;;18.97;71.29
10071;BME280;5074;53.720;10.014;2022-09-30T12:44:11;100543.94;;;18.30;73.50
10071;BME280;5074;53.720;10.014;2022-09-30T12:46:56;100538.81;;;17.34;80.13
10071;BME280;5074;53.720;10.014;2022-09-30T12:49:30;100539.56;;;17.36;81.31
10071;BME280;5074;53.720;10.014;2022-09-30T12:52:04;100542.72;;;16.88;82.77
10071;BME280;5074;53.720;10.014;2022-09-30T12:54:35;100536.91;;;16.38;86.85
10071;BME280;5074;53.720;10.014;2022-09-30T12:57:07;100536.59;;;16.00;91.96
10071;BME280;5074;53.720;10.014;2022-09-30T12:59:42;100533.41;;;16.50;91.93
10071;BME280;5074;53.720;10.014;2022-09-30T13:02:27;100528.31;;;18.47;81.77
10071;BME280;5074;53.720;10.014;2022-09-30T13:05:43;100514.47;;;19.72;67.20
10071;BME280;5074;53.720;10.014;2022-09-30T13:08:31;100520.22;;;19.56;64.54
10071;BME280;5074;53.720;10.014;2022-09-30T13:11:05;100526.66;;;18.70;65.28
10071;BME280;5074;53.720;10.014;2022-09-30T13:14:01;100527.03;;;18.01;68.55
10071;BME280;5074;53.720;10.014;2022-09-30T13:19:42;100525.72;;;19.19;61.68
10071;BME280;5074;53.720;10.014;2022-09-30T13:25:18;100516.78;;;20.92;54.75
10071;BME280;5074;53.720;10.014;2022-09-30T13:27:48;100538.16;;;19.70;53.65
10071;BME280;5074;53.720;10.014;2022-09-30T13:30:35;100527.34;;;19.82;53.48
10071;BME280;5074;53.720;10.014;2022-09-30T13:35:49;100520.94;;;21.40;48.83
10071;BME280;5074;53.720;10.014;2022-09-30T13:38:20;100527.63;;;21.03;50.21
10071;BME280;5074;53.720;10.014;2022-09-30T13:40:52;100517.56;;;22.11;48.57